sensor_id;sensor_type;location;lat;lon;timestamp;pressure;altitude;pressure_sealevel;temperature;humidity
69528;BME280;57136;51.986;4.468;2023-03-23T00:02:27;100190.66;;;12.62;100.00
69528;BME280;57136;51.986;4.468;2023-03-23T00:04:53;100203.75;;;12.60;100.00
69528;BME280;57136;51.986;4.468;2023-03-23T00:07:20;100196.53;;;12.76;100.00
69528;BME280;57136;51.986;4.468;2023-03-23T00:09:48;100197.97;;;12.36;100.00
69528;BME280;57136;51.986;4.468;2023-03-23T00:12:18;100200.44;;;12.49;100.00
69528;BME280;57136;51.986;4.468;2023-03-23T00:14:44;100191.59;;;12.57;100.00
69528;BME280;57136;51.986;4.468;2023-03-23T00:17:10;100195.16;;;12.50;100.00
69528;BME280;57136;51.986;4.468;2023-03-23T00:19:37;100178.50;;;12.59;100.00
69528;BME280;57136;51.986;4.468;2023-03-23T00:22:13;100188.84;;;12.67;100.00
69528;BME280;57136;51.986;4.468;2023-03-23T00:24:40;100181.34;;;12.42;100.00
69528;BME280;57136;51.986;4.468;2023-03-23T00:27:06;100180.09;;;12.69;100.00
69528;BME280;57136;51.986;4.468;2023-03-23T00:29:31;100182.09;;;12.50;100.00
69528;BME280;57136;51.986;4.468;2023-03-23T00:31:57;100174.31;;;12.47;100.00
69528;BME280;57136;51.986;4.468;2023-03-23T00:34:23;100175.94;;;12.54;100.00
69528;BME280;57136;51.986;4.468;2023-03-23T00:36:51;100164.88;;;12.37;100.00
69528;BME280;57136;51.986;4.468;2023-03-23T00:39:18;100162.72;;;12.65;100.00
69528;BME280;57136;51.986;4.468;2023-03-23T00:41:45;100152.59;;;12.42;100.00
69528;BME280;57136;51.986;4.468;2023-03-23T00:44:12;100158.81;;;12.33;100.00
69528;BME280;57136;51.986;4.468;2023-03-23T00:46:46;100150.94;;;12.36;100.00
69528;BME280;57136;51.986;4.468;2023-03-23T00:49:15;100148.41;;;12.30;100.00
69528;BME280;57136;51.986;4.468;2023-03-23T00:51:41;100164.06;;;12.32;100.00
69528;BME280;57136;51.986;4.468;2023-03-23T00:54:07;100159.53;;;12.43;100.00
69528;BME280;57136;51.986;4.468;2023-03-23T00:56:34;100164.84;;;12.40;100.00
69528;BME280;57136;51.986;4.468;2023-03-23T00:59:00;100170.22;;;12.27;100.00
69528;BME280;57136;51.986;4.468;2023-03-23T01:01:25;100176.25;;;12.33;100.00
69528;BME280;57136;51.986;4.468;2023-03-23T01:03:51;100168.34;;;12.39;100.00
69528;BME280;57136;51.986;4.468;2023-03-23T01:06:18;100153.44;;;12.44;100.00
69528;BME280;57136;51.986;4.468;2023-03-23T01:08:43;100141.38;;;12.35;100.00
69528;BME280;57136;51.986;4.468;2023-03-23T01:11:14;100143.00;;;12.44;100.00
69528;BME280;57136;51.986;4.468;2023-03-23T01:13:41;100128.34;;;12.34;100.00
69528;BME280;57136;51.986;4.468;2023-03-23T01:16:07;100125.84;;;12.24;100.00
69528;BME280;57136;51.986;4.468;2023-03-23T01:18:33;100123.16;;;12.29;100.00
69528;BME280;57136;51.986;4.468;2023-03-23T01:21:04;100137.06;;;12.33;100.00
69528;BME280;57136;51.986;4.468;2023-03-23T01:23:32;100120.59;;;12.27;100.00
69528;BME280;57136;51.986;4.468;2023-03-23T01:26:02;100124.69;;;12.44;100.00
69528;BME280;57136;51.986;4.468;2023-03-23T01:28:28;100123.16;;;12.29;100.00
69528;BME280;57136;51.986;4.468;2023-03-23T01:30:59;100126.69;;;12.26;100.00
69528;BME280;57136;51.986;4.468;2023-03-23T01:33:25;100121.31;;;12.39;100.00
69528;BME280;57136;51.986;4.468;2023-03-23T01:35:50;100125.84;;;12.26;100.00
69528;BME280;57136;51.986;4.468;2023-03-23T01:38:15;100126.59;;;12.34;100.00
69528;BME280;57136;51.986;4.468;2023-03-23T01:40:41;100110.78;;;12.42;100.00
69528;BME280;57136;51.986;4.468;2023-03-23T01:43:14;100109.09;;;12.39;100.00
69528;BME280;57136;51.986;4.468;2023-03-23T01:45:40;100104.84;;;12.34;100.00
69528;BME280;57136;51.986;4.468;2023-03-23T01:48:51;100102.25;;;12.31;100.00
69528;BME280;57136;51.986;4.468;2023-03-23T01:51:01;100105.69;;;12.36;100.00
69528;BME280;57136;51.986;4.468;2023-03-23T01:53:31;100092.66;;;12.33;100.00
69528;BME280;57136;51.986;4.468;2023-03-23T01:55:59;100082.41;;;12.19;100.00
69528;BME280;57136;51.986;4.468;2023-03-23T01:58:27;100095.38;;;12.23;100.00
69528;BME280;57136;51.986;4.468;2023-03-23T02:00:57;100092.91;;;12.16;100.00
69528;BME280;57136;51.986;4.468;2023-03-23T02:03:26;100102.34;;;12.24;100.00
69528;BME280;57136;51.986;4.468;2023-03-23T02:05:53;100106.69;;;12.25;100.00
69528;BME280;57136;51.986;4.468;2023-03-23T02:08:20;100099.06;;;12.10;100.00
69528;BME280;57136;51.986;4.468;2023-03-23T02:10:46;100099.84;;;12.17;100.00
69528;BME280;57136;51.986;4.468;2023-03-23T02:13:12;100114.78;;;12.07;100.00
69528;BME280;57136;51.986;4.468;2023-03-23T02:15:59;100100.53;;;12.28;100.00
69528;BME280;57136;51.986;4.468;2023-03-23T02:35:22;100090.13;;;12.26;100.00
69528;BME280;57136;51.986;4.468;2023-03-23T02:37:52;100099.72;;;12.26;100.00
69528;BME280;57136;51.986;4.468;2023-03-23T02:40:28;100091.81;;;12.31;100.00
69528;BME280;57136;51.986;4.468;2023-03-23T02:42:57;100091.69;;;12.38;100.00
69528;BME280;57136;51.986;4.468;2023-03-23T02:45:25;100088.31;;;12.30;100.00
69528;BME280;57136;51.986;4.468;2023-03-23T02:47:53;100101.53;;;12.19;100.00
69528;BME280;57136;51.986;4.468;2023-03-23T02:50:22;100103.19;;;12.26;100.00
69528;BME280;57136;51.986;4.468;2023-03-23T02:52:49;100107.38;;;12.40;100.00
69528;BME280;57136;51.986;4.468;2023-03-23T02:55:16;100100.50;;;12.31;100.00
69528;BME280;57136;51.986;4.468;2023-03-23T02:57:43;100086.59;;;12.29;100.00
69528;BME280;57136;51.986;4.468;2023-03-23T03:00:14;100091.81;;;12.31;100.00
69528;BME280;57136;51.986;4.468;2023-03-23T03:02:43;100084.06;;;12.24;100.00
69528;BME280;57136;51.986;4.468;2023-03-23T03:10:31;100092.00;;;12.17;100.00
69528;BME280;57136;51.986;4.468;2023-03-23T03:13:07;100083.13;;;12.27;100.00
69528;BME280;57136;51.986;4.468;2023-03-23T03:15:52;100112.63;;;12.37;100.00
69528;BME280;57136;51.986;4.468;2023-03-23T03:18:25;100087.75;;;12.11;100.00
69528;BME280;57136;51.986;4.468;2023-03-23T03:21:02;100084.91;;;11.58;100.00
69528;BME280;57136;51.986;4.468;2023-03-23T03:23:30;100086.53;;;11.68;100.00
69528;BME280;57136;51.986;4.468;2023-03-23T03:25:57;100093.88;;;11.32;100.00
69528;BME280;57136;51.986;4.468;2023-03-23T03:28:25;100107.69;;;11.42;100.00
69528;BME280;57136;51.986;4.468;2023-03-23T03:30:54;100100.84;;;11.31;100.00
69528;BME280;57136;51.986;4.468;2023-03-23T03:33:21;100105.19;;;11.29;100.00
69528;BME280;57136;51.986;4.468;2023-03-23T03:35:51;100097.56;;;11.12;100.00
69528;BME280;57136;51.986;4.468;2023-03-23T03:38:17;100095.03;;;11.03;100.00
69528;BME280;57136;51.986;4.468;2023-03-23T03:40:42;100101.97;;;11.05;100.00
69528;BME280;57136;51.986;4.468;2023-03-23T03:43:08;100107.25;;;10.98;100.00
69528;BME280;57136;51.986;4.468;2023-03-23T03:45:33;100110.59;;;11.11;100.00
69528;BME280;57136;51.986;4.468;2023-03-23T03:47:58;100094.16;;;11.04;100.00
69528;BME280;57136;51.986;4.468;2023-03-23T03:50:24;100098.66;;;10.88;100.00
69528;BME280;57136;51.986;4.468;2023-03-23T03:52:49;100110.59;;;11.11;100.00
69528;BME280;57136;51.986;4.468;2023-03-23T03:55:15;100097.53;;;11.14;100.00
69528;BME280;57136;51.986;4.468;2023-03-23T03:57:42;100117.59;;;11.05;100.00
69528;BME280;57136;51.986;4.468;2023-03-23T04:00:08;100092.41;;;11.06;100.00
69528;BME280;57136;51.986;4.468;2023-03-23T04:02:47;100101.81;;;11.21;100.00
69528;BME280;57136;51.986;4.468;2023-03-23T04:05:16;100118.44;;;11.12;100.00
69528;BME280;57136;51.986;4.468;2023-03-23T04:07:41;100112.34;;;11.12;100.00
69528;BME280;57136;51.986;4.468;2023-03-23T04:10:08;100107.94;;;11.17;100.00
69528;BME280;57136;51.986;4.468;2023-03-23T04:12:35;100120.94;;;11.23;100.00
69528;BME280;57136;51.986;4.468;2023-03-23T04:15:01;100126.97;;;11.27;100.00
69528;BME280;57136;51.986;4.468;2023-03-23T04:17:26;100118.97;;;11.44;100.00
69528;BME280;57136;51.986;4.468;2023-03-23T04:19:53;100117.31;;;11.38;100.00
69528;BME280;57136;51.986;4.468;2023-03-23T04:22:22;100121.59;;;11.44;100.00
69528;BME280;57136;51.986;4.468;2023-03-23T04:24:50;100134.47;;;11.58;100.00
69528;BME280;57136;51.986;4.468;2023-03-23T04:27:16;100142.25;;;11.62;100.00
69528;BME280;57136;51.986;4.468;2023-03-23T04:29:42;100152.75;;;11.58;100.00
69528;BME280;57136;51.986;4.468;2023-03-23T04:32:07;100158.66;;;11.72;100.00
69528;BME280;57136;51.986;4.468;2023-03-23T04:34:33;100149.41;;;11.43;100.00
69528;BME280;57136;51.986;4.468;2023-03-23T04:37:00;100153.84;;;11.35;100.00
69528;BME280;57136;51.986;4.468;2023-03-23T04:39:25;100144.22;;;11.42;100.00
69528;BME280;57136;51.986;4.468;2023-03-23T04:41:54;100156.44;;;11.38;100.00
69528;BME280;57136;51.986;4.468;2023-03-23T04:44:19;100154.72;;;11.37;100.00
69528;BME280;57136;51.986;4.468;2023-03-23T04:46:46;100159.09;;;11.32;100.00
69528;BME280;57136;51.986;4.468;2023-03-23T04:49:15;100149.47;;;11.40;100.00
69528;BME280;57136;51.986;4.468;2023-03-23T04:51:46;100162.56;;;11.29;100.00
69528;BME280;57136;51.986;4.468;2023-03-23T04:54:11;100170.44;;;11.28;100.00
69528;BME280;57136;51.986;4.468;2023-03-23T04:56:38;100157.41;;;11.26;100.00
69528;BME280;57136;51.986;4.468;2023-03-23T04:59:03;100168.03;;;11.04;100.00
69528;BME280;57136;51.986;4.468;2023-03-23T05:01:31;100169.69;;;11.15;100.00
69528;BME280;57136;51.986;4.468;2023-03-23T05:03:56;100168.78;;;11.19;100.00
69528;BME280;57136;51.986;4.468;2023-03-23T05:06:22;100168.91;;;11.03;100.00
69528;BME280;57136;51.986;4.468;2023-03-23T05:08:48;100162.91;;;10.95;100.00
69528;BME280;57136;51.986;4.468;2023-03-23T05:11:13;100161.06;;;11.03;100.00
69528;BME280;57136;51.986;4.468;2023-03-23T05:13:38;100159.28;;;11.12;100.00
69528;BME280;57136;51.986;4.468;2023-03-23T05:16:05;100167.22;;;10.98;100.00
69528;BME280;57136;51.986;4.468;2023-03-23T05:18:31;100163.66;;;11.08;100.00
69528;BME280;57136;51.986;4.468;2023-03-23T05:21:03;100173.22;;;11.07;100.00
69528;BME280;57136;51.986;4.468;2023-03-23T05:23:29;100174.06;;;11.09;100.00
69528;BME280;57136;51.986;4.468;2023-03-23T05:25:57;100177.63;;;11.01;100.00
69528;BME280;57136;51.986;4.468;2023-03-23T05:28:26;100168.03;;;11.03;100.00
69528;BME280;57136;51.986;4.468;2023-03-23T05:30:51;100181.88;;;11.09;100.00
69528;BME280;57136;51.986;4.468;2023-03-23T05:33:17;100198.38;;;11.15;100.00
69528;BME280;57136;51.986;4.468;2023-03-23T05:35:43;100191.41;;;11.15;100.00
69528;BME280;57136;51.986;4.468;2023-03-23T05:38:10;100198.34;;;11.16;100.00
69528;BME280;57136;51.986;4.468;2023-03-23T05:40:36;100180.00;;;11.26;100.00
69528;BME280;57136;51.986;4.468;2023-03-23T05:43:02;100193.09;;;11.19;100.00
69528;BME280;57136;51.986;4.468;2023-03-23T05:45:28;100199.94;;;11.36;100.00
69528;BME280;57136;51.986;4.468;2023-03-23T05:47:53;100210.50;;;11.17;100.00
69528;BME280;57136;51.986;4.468;2023-03-23T05:50:19;100213.16;;;11.14;100.00
69528;BME280;57136;51.986;4.468;2023-03-23T05:52:44;100211.56;;;10.93;100.00
69528;BME280;57136;51.986;4.468;2023-03-23T05:55:11;100213.28;;;11.00;100.00
69528;BME280;57136;51.986;4.468;2023-03-23T05:57:38;100208.06;;;11.00;100.00
69528;BME280;57136;51.986;4.468;2023-03-23T06:00:04;100214.91;;;11.11;100.00
69528;BME280;57136;51.986;4.468;2023-03-23T06:02:44;100226.13;;;11.20;100.00
69528;BME280;57136;51.986;4.468;2023-03-23T06:05:10;100227.03;;;11.18;100.00
69528;BME280;57136;51.986;4.468;2023-03-23T06:07:36;100221.84;;;11.12;100.00
69528;BME280;57136;51.986;4.468;2023-03-23T06:10:04;100222.66;;;11.23;100.00
69528;BME280;57136;51.986;4.468;2023-03-23T06:12:29;100235.66;;;11.24;100.00
69528;BME280;57136;51.986;4.468;2023-03-23T06:14:55;100237.31;;;11.33;100.00
69528;BME280;57136;51.986;4.468;2023-03-23T06:17:20;100244.31;;;11.31;100.00
69528;BME280;57136;51.986;4.468;2023-03-23T06:19:45;100244.28;;;11.34;100.00
69528;BME280;57136;51.986;4.468;2023-03-23T06:22:13;100235.66;;;11.26;100.00
69528;BME280;57136;51.986;4.468;2023-03-23T06:24:39;100232.16;;;11.29;100.00
69528;BME280;57136;51.986;4.468;2023-03-23T06:27:05;100258.19;;;11.36;100.00
69528;BME280;57136;51.986;4.468;2023-03-23T06:29:30;100263.28;;;11.52;100.00
69528;BME280;57136;51.986;4.468;2023-03-23T06:31:58;100249.50;;;11.31;100.00
69528;BME280;57136;51.986;4.468;2023-03-23T06:34:24;100257.28;;;11.41;100.00
69528;BME280;57136;51.986;4.468;2023-03-23T06:36:50;100254.75;;;11.33;100.00
69528;BME280;57136;51.986;4.468;2023-03-23T06:39:15;100260.69;;;11.49;100.00
69528;BME280;57136;51.986;4.468;2023-03-23T06:41:41;100248.59;;;11.40;100.00
69528;BME280;57136;51.986;4.468;2023-03-23T06:44:06;100265.09;;;11.44;100.00
69528;BME280;57136;51.986;4.468;2023-03-23T06:46:33;100266.91;;;11.29;100.00
69528;BME280;57136;51.986;4.468;2023-03-23T06:48:59;100259.06;;;11.37;100.00
69528;BME280;57136;51.986;4.468;2023-03-23T06:51:24;100265.88;;;11.53;100.00
69528;BME280;57136;51.986;4.468;2023-03-23T06:53:50;100276.31;;;11.50;100.00
69528;BME280;57136;51.986;4.468;2023-03-23T06:56:15;100272.03;;;11.43;100.00
69528;BME280;57136;51.986;4.468;2023-03-23T06:58:41;100268.63;;;11.38;100.00
69528;BME280;57136;51.986;4.468;2023-03-23T07:01:11;100273.78;;;11.43;100.00
69528;BME280;57136;51.986;4.468;2023-03-23T07:03:37;100276.34;;;11.49;100.00
69528;BME280;57136;51.986;4.468;2023-03-23T07:06:03;100266.91;;;11.32;100.00
69528;BME280;57136;51.986;4.468;2023-03-23T07:08:29;100284.16;;;11.47;100.00
69528;BME280;57136;51.986;4.468;2023-03-23T07:10:55;100270.22;;;11.51;100.00
69528;BME280;57136;51.986;4.468;2023-03-23T07:13:21;100262.44;;;11.45;100.00
69528;BME280;57136;51.986;4.468;2023-03-23T07:15:47;100270.44;;;11.27;100.00
69528;BME280;57136;51.986;4.468;2023-03-23T07:18:13;100285.16;;;11.32;100.00
69528;BME280;57136;51.986;4.468;2023-03-23T07:20:39;100287.63;;;11.52;100.00
69528;BME280;57136;51.986;4.468;2023-03-23T07:23:05;100284.91;;;11.65;100.00
69528;BME280;57136;51.986;4.468;2023-03-23T07:25:31;100281.53;;;11.52;100.00
69528;BME280;57136;51.986;4.468;2023-03-23T07:27:58;100283.19;;;11.64;100.00
69528;BME280;57136;51.986;4.468;2023-03-23T07:30:23;100292.78;;;11.57;100.00
69528;BME280;57136;51.986;4.468;2023-03-23T07:32:49;100276.44;;;11.38;100.00
69528;BME280;57136;51.986;4.468;2023-03-23T07:35:16;100281.78;;;11.21;100.00
69528;BME280;57136;51.986;4.468;2023-03-23T07:37:41;100275.56;;;11.39;100.00
69528;BME280;57136;51.986;4.468;2023-03-23T07:40:07;100286.38;;;11.92;100.00
69528;BME280;57136;51.986;4.468;2023-03-23T07:42:33;100298.22;;;12.29;100.00
69528;BME280;57136;51.986;4.468;2023-03-23T07:44:59;100290.09;;;12.52;100.00
69528;BME280;57136;51.986;4.468;2023-03-23T07:47:24;100281.94;;;12.79;100.00
69528;BME280;57136;51.986;4.468;2023-03-23T07:49:50;100281.97;;;12.74;100.00
69528;BME280;57136;51.986;4.468;2023-03-23T07:52:15;100293.97;;;12.20;100.00
69528;BME280;57136;51.986;4.468;2023-03-23T07:54:40;100296.69;;;12.11;100.00
69528;BME280;57136;51.986;4.468;2023-03-23T07:57:06;100302.00;;;12.02;100.00
69528;BME280;57136;51.986;4.468;2023-03-23T07:59:32;100305.69;;;11.76;100.00
69528;BME280;57136;51.986;4.468;2023-03-23T08:01:57;100309.91;;;11.91;100.00
69528;BME280;57136;51.986;4.468;2023-03-23T08:04:23;100314.00;;;12.18;100.00
69528;BME280;57136;51.986;4.468;2023-03-23T08:06:48;100321.88;;;12.15;100.00
69528;BME280;57136;51.986;4.468;2023-03-23T08:09:14;100316.69;;;12.10;100.00
69528;BME280;57136;51.986;4.468;2023-03-23T08:11:41;100324.44;;;12.21;100.00
69528;BME280;57136;51.986;4.468;2023-03-23T08:14:06;100331.31;;;12.28;100.00
69528;BME280;57136;51.986;4.468;2023-03-23T08:16:32;100325.09;;;12.40;100.00
69528;BME280;57136;51.986;4.468;2023-03-23T08:18:58;100318.75;;;12.60;100.00
69528;BME280;57136;51.986;4.468;2023-03-23T08:21:24;100329.97;;;12.70;100.00
69528;BME280;57136;51.986;4.468;2023-03-23T08:23:49;100327.44;;;12.62;100.00
69528;BME280;57136;51.986;4.468;2023-03-23T08:26:15;100327.97;;;12.91;100.00
69528;BME280;57136;51.986;4.468;2023-03-23T08:28:40;100323.63;;;12.88;100.00
69528;BME280;57136;51.986;4.468;2023-03-23T08:31:12;100329.88;;;12.76;100.00
69528;BME280;57136;51.986;4.468;2023-03-23T08:33:39;100334.84;;;12.96;100.00
69528;BME280;57136;51.986;4.468;2023-03-23T08:36:05;100334.72;;;13.07;100.00
69528;BME280;57136;51.986;4.468;2023-03-23T08:38:32;100334.44;;;12.60;100.00
69528;BME280;57136;51.986;4.468;2023-03-23T08:41:02;100338.06;;;13.18;99.58
69528;BME280;57136;51.986;4.468;2023-03-23T08:43:30;100350.25;;;13.18;99.84
69528;BME280;57136;51.986;4.468;2023-03-23T08:45:55;100343.50;;;13.64;97.83
69528;BME280;57136;51.986;4.468;2023-03-23T08:48:21;100352.28;;;13.61;96.90
69528;BME280;57136;51.986;4.468;2023-03-23T08:50:47;100353.88;;;13.69;97.39
69528;BME280;57136;51.986;4.468;2023-03-23T08:53:13;100355.56;;;13.13;96.85
69528;BME280;57136;51.986;4.468;2023-03-23T08:55:38;100344.16;;;13.16;95.40
69528;BME280;57136;51.986;4.468;2023-03-23T08:58:05;100347.00;;;13.63;95.60
69528;BME280;57136;51.986;4.468;2023-03-23T09:00:31;100329.03;;;13.38;93.08
69528;BME280;57136;51.986;4.468;2023-03-23T09:02:57;100340.06;;;13.59;91.45
69528;BME280;57136;51.986;4.468;2023-03-23T09:05:25;100344.59;;;14.02;90.76
69528;BME280;57136;51.986;4.468;2023-03-23T09:07:52;100342.22;;;14.37;90.21
69528;BME280;57136;51.986;4.468;2023-03-23T09:10:19;100304.44;;;14.90;84.42
69528;BME280;57136;51.986;4.468;2023-03-23T09:12:48;100339.94;;;15.06;84.63
69528;BME280;57136;51.986;4.468;2023-03-23T09:15:15;100340.44;;;15.22;83.72
69528;BME280;57136;51.986;4.468;2023-03-23T09:17:43;100339.41;;;15.30;84.02
69528;BME280;57136;51.986;4.468;2023-03-23T09:20:11;100339.56;;;15.23;82.65
69528;BME280;57136;51.986;4.468;2023-03-23T09:22:42;100345.63;;;15.25;81.77
69528;BME280;57136;51.986;4.468;2023-03-23T09:25:10;100352.16;;;15.47;81.35
69528;BME280;57136;51.986;4.468;2023-03-23T09:27:36;100351.34;;;15.81;79.92
69528;BME280;57136;51.986;4.468;2023-03-23T09:30:06;100352.63;;;16.00;78.29
69528;BME280;57136;51.986;4.468;2023-03-23T09:32:33;100353.56;;;15.98;76.73
69528;BME280;57136;51.986;4.468;2023-03-23T09:35:01;100362.59;;;15.48;80.41
69528;BME280;57136;51.986;4.468;2023-03-23T09:37:27;100356.22;;;15.60;80.99
69528;BME280;57136;51.986;4.468;2023-03-23T09:39:53;100357.22;;;15.54;77.46
69528;BME280;57136;51.986;4.468;2023-03-23T09:45:19;100363.78;;;14.95;81.14
69528;BME280;57136;51.986;4.468;2023-03-23T09:50:30;100380.16;;;14.63;80.70
69528;BME280;57136;51.986;4.468;2023-03-23T09:53:15;100381.03;;;14.63;82.60
69528;BME280;57136;51.986;4.468;2023-03-23T09:55:43;100386.03;;;14.30;80.58
69528;BME280;57136;51.986;4.468;2023-03-23T09:58:22;100382.91;;;14.08;83.16
69528;BME280;57136;51.986;4.468;2023-03-23T10:01:06;100386.59;;;14.46;84.90
69528;BME280;57136;51.986;4.468;2023-03-23T10:03:40;100392.97;;;14.33;83.85
69528;BME280;57136;51.986;4.468;2023-03-23T10:06:10;100397.41;;;14.29;84.26
69528;BME280;57136;51.986;4.468;2023-03-23T10:08:39;100402.97;;;15.05;82.27
69528;BME280;57136;51.986;4.468;2023-03-23T10:11:09;100404.06;;;14.93;80.21
69528;BME280;57136;51.986;4.468;2023-03-23T10:16:36;100395.22;;;14.03;81.69
69528;BME280;57136;51.986;4.468;2023-03-23T10:21:35;100408.28;;;14.54;80.08
69528;BME280;57136;51.986;4.468;2023-03-23T10:24:07;100406.78;;;15.31;77.90
69528;BME280;57136;51.986;4.468;2023-03-23T10:27:51;100399.25;;;15.92;74.80
69528;BME280;57136;51.986;4.468;2023-03-23T10:30:22;100394.16;;;15.84;71.74
69528;BME280;57136;51.986;4.468;2023-03-23T10:35:33;100377.25;;;15.21;74.39
69528;BME280;57136;51.986;4.468;2023-03-23T10:38:05;100398.91;;;15.31;74.99
69528;BME280;57136;51.986;4.468;2023-03-23T10:40:32;100395.94;;;15.46;74.28
69528;BME280;57136;51.986;4.468;2023-03-23T10:43:00;100404.34;;;15.98;73.62
69528;BME280;57136;51.986;4.468;2023-03-23T10:45:30;100412.78;;;15.36;73.85
69528;BME280;57136;51.986;4.468;2023-03-23T10:48:21;100417.53;;;14.76;76.19
69528;BME280;57136;51.986;4.468;2023-03-23T10:50:51;100411.50;;;14.22;77.35
69528;BME280;57136;51.986;4.468;2023-03-23T10:53:34;100405.19;;;14.34;78.22
69528;BME280;57136;51.986;4.468;2023-03-23T10:56:01;100422.19;;;14.60;77.83
69528;BME280;57136;51.986;4.468;2023-03-23T10:58:29;100397.16;;;14.89;75.51
69528;BME280;57136;51.986;4.468;2023-03-23T11:00:57;100396.69;;;14.66;78.62
69528;BME280;57136;51.986;4.468;2023-03-23T11:06:03;100404.94;;;14.93;75.19
69528;BME280;57136;51.986;4.468;2023-03-23T11:08:35;100401.63;;;14.85;75.89
69528;BME280;57136;51.986;4.468;2023-03-23T11:11:25;100388.81;;;15.12;78.03
69528;BME280;57136;51.986;4.468;2023-03-23T11:14:01;100404.63;;;15.87;72.66
69528;BME280;57136;51.986;4.468;2023-03-23T11:16:29;100398.13;;;16.02;69.84
69528;BME280;57136;51.986;4.468;2023-03-23T11:18:57;100413.41;;;16.56;69.83
69528;BME280;57136;51.986;4.468;2023-03-23T11:21:24;100408.00;;;15.93;69.44
69528;BME280;57136;51.986;4.468;2023-03-23T11:23:58;100403.91;;;15.79;70.49
69528;BME280;57136;51.986;4.468;2023-03-23T11:26:27;100397.44;;;15.56;70.96
69528;BME280;57136;51.986;4.468;2023-03-23T11:29:13;100392.19;;;15.94;72.29
69528;BME280;57136;51.986;4.468;2023-03-23T11:31:49;100403.31;;;16.72;69.70
69528;BME280;57136;51.986;4.468;2023-03-23T11:34:41;100398.88;;;17.05;68.74
69528;BME280;57136;51.986;4.468;2023-03-23T11:37:09;100394.97;;;16.56;69.02
69528;BME280;57136;51.986;4.468;2023-03-23T11:42:23;100384.81;;;17.05;69.06
69528;BME280;57136;51.986;4.468;2023-03-23T11:44:53;100404.91;;;16.77;68.85
69528;BME280;57136;51.986;4.468;2023-03-23T11:49:52;100400.63;;;16.73;69.87
69528;BME280;57136;51.986;4.468;2023-03-23T11:55:22;100404.06;;;16.75;68.97
69528;BME280;57136;51.986;4.468;2023-03-23T11:57:48;100404.53;;;16.27;71.45
69528;BME280;57136;51.986;4.468;2023-03-23T12:00:16;100400.38;;;16.16;70.81
69528;BME280;57136;51.986;4.468;2023-03-23T12:06:02;100395.19;;;16.15;68.15
69528;BME280;57136;51.986;4.468;2023-03-23T12:13:50;100386.84;;;16.32;66.17
69528;BME280;57136;51.986;4.468;2023-03-23T12:16:35;100397.53;;;17.49;64.63
69528;BME280;57136;51.986;4.468;2023-03-23T12:34:54;100380.16;;;15.07;74.26
69528;BME280;57136;51.986;4.468;2023-03-23T12:40:32;100377.09;;;16.67;69.05
69528;BME280;57136;51.986;4.468;2023-03-23T12:45:50;100380.03;;;16.58;71.00
69528;BME280;57136;51.986;4.468;2023-03-23T12:48:24;100376.56;;;16.23;69.44
69528;BME280;57136;51.986;4.468;2023-03-23T12:51:14;100383.34;;;15.61;70.52
69528;BME280;57136;51.986;4.468;2023-03-23T12:56:53;100389.78;;;15.47;74.86
69528;BME280;57136;51.986;4.468;2023-03-23T13:04:55;100405.47;;;15.09;74.58
69528;BME280;57136;51.986;4.468;2023-03-23T13:07:27;100396.38;;;15.26;73.18
69528;BME280;57136;51.986;4.468;2023-03-23T13:10:15;100407.97;;;16.29;71.77
69528;BME280;57136;51.986;4.468;2023-03-23T13:12:44;100390.09;;;16.07;69.82
69528;BME280;57136;51.986;4.468;2023-03-23T13:21:02;100404.91;;;15.75;71.62
69528;BME280;57136;51.986;4.468;2023-03-23T13:23:33;100389.22;;;15.33;71.39
69528;BME280;57136;51.986;4.468;2023-03-23T13:28:48;100396.97;;;15.39;71.19
69528;BME280;57136;51.986;4.468;2023-03-23T13:31:35;100389.88;;;15.44;70.62
69528;BME280;57136;51.986;4.468;2023-03-23T13:34:29;100401.03;;;15.90;69.31
69528;BME280;57136;51.986;4.468;2023-03-23T13:37:00;100405.97;;;16.37;66.53
69528;BME280;57136;51.986;4.468;2023-03-23T13:39:33;100411.31;;;16.34;68.58
69528;BME280;57136;51.986;4.468;2023-03-23T13:42:21;100415.19;;;16.54;69.86
69528;BME280;57136;51.986;4.468;2023-03-23T13:49:57;100380.75;;;15.59;68.62
69528;BME280;57136;51.986;4.468;2023-03-23T14:03:19;100397.22;;;17.01;64.12
69528;BME280;57136;51.986;4.468;2023-03-23T14:05:59;100389.75;;;16.21;66.42
69528;BME280;57136;51.986;4.468;2023-03-23T14:11:01;100392.00;;;16.68;66.14
69528;BME280;57136;51.986;4.468;2023-03-23T14:13:51;100386.03;;;15.95;68.84
69528;BME280;57136;51.986;4.468;2023-03-23T14:16:26;100379.25;;;15.86;69.68
69528;BME280;57136;51.986;4.468;2023-03-23T14:18:58;100369.56;;;15.88;71.56
69528;BME280;57136;51.986;4.468;2023-03-23T14:21:36;100360.06;;;16.49;70.03
69528;BME280;57136;51.986;4.468;2023-03-23T14:24:09;100354.88;;;16.47;67.67
69528;BME280;57136;51.986;4.468;2023-03-23T14:26:35;100337.81;;;15.98;67.66
69528;BME280;57136;51.986;4.468;2023-03-23T14:29:01;100327.63;;;15.82;70.89
69528;BME280;57136;51.986;4.468;2023-03-23T14:31:28;100318.66;;;15.93;71.75
69528;BME280;57136;51.986;4.468;2023-03-23T14:33:56;100315.31;;;16.19;71.87
69528;BME280;57136;51.986;4.468;2023-03-23T14:36:29;100311.56;;;16.59;69.73
69528;BME280;57136;51.986;4.468;2023-03-23T14:39:00;100302.28;;;16.47;66.96
69528;BME280;57136;51.986;4.468;2023-03-23T14:41:30;100301.44;;;16.45;67.75
69528;BME280;57136;51.986;4.468;2023-03-23T14:43:57;100306.41;;;16.56;67.45
69528;BME280;57136;51.986;4.468;2023-03-23T14:46:24;100312.13;;;16.71;67.57